sensor_id;sensor_type;location;lat;lon;timestamp;P1;durP1;ratioP1;P2;durP2;ratioP2
5890;SDS011;2971;52.420;7.080;2024-03-22T00:02:21;49.83;;;42.97;;
5890;SDS011;2971;52.420;7.080;2024-03-22T00:04:47;52.23;;;42.43;;
5890;SDS011;2971;52.420;7.080;2024-03-22T00:07:12;51.07;;;42.70;;
5890;SDS011;2971;52.420;7.080;2024-03-22T00:09:38;50.77;;;42.50;;
5890;SDS011;2971;52.420;7.080;2024-03-22T00:12:04;54.67;;;44.73;;
5890;SDS011;2971;52.420;7.080;2024-03-22T00:14:31;51.13;;;43.90;;
5890;SDS011;2971;52.420;7.080;2024-03-22T00:16:57;52.60;;;42.87;;
5890;SDS011;2971;52.420;7.080;2024-03-22T00:19:22;49.03;;;41.93;;
5890;SDS011;2971;52.420;7.080;2024-03-22T00:21:48;51.03;;;41.70;;
5890;SDS011;2971;52.420;7.080;2024-03-22T00:24:13;50.60;;;41.87;;
5890;SDS011;2971;52.420;7.080;2024-03-22T00:26:39;51.80;;;41.40;;
5890;SDS011;2971;52.420;7.080;2024-03-22T00:29:04;48.97;;;41.03;;
5890;SDS011;2971;52.420;7.080;2024-03-22T00:31:31;48.67;;;41.73;;
5890;SDS011;2971;52.420;7.080;2024-03-22T00:33:57;51.10;;;41.50;;
5890;SDS011;2971;52.420;7.080;2024-03-22T00:36:23;50.80;;;42.40;;
5890;SDS011;2971;52.420;7.080;2024-03-22T00:38:48;55.53;;;42.43;;
5890;SDS011;2971;52.420;7.080;2024-03-22T00:41:14;50.80;;;41.47;;
5890;SDS011;2971;52.420;7.080;2024-03-22T00:43:40;50.47;;;41.97;;
5890;SDS011;2971;52.420;7.080;2024-03-22T00:46:05;51.27;;;42.23;;
5890;SDS011;2971;52.420;7.080;2024-03-22T00:48:34;53.43;;;41.00;;
5890;SDS011;2971;52.420;7.080;2024-03-22T00:51:00;53.13;;;42.47;;
5890;SDS011;2971;52.420;7.080;2024-03-22T00:53:26;52.97;;;42.67;;
5890;SDS011;2971;52.420;7.080;2024-03-22T00:55:53;55.13;;;43.27;;
5890;SDS011;2971;52.420;7.080;2024-03-22T00:58:21;52.30;;;42.97;;
5890;SDS011;2971;52.420;7.080;2024-03-22T01:00:46;53.43;;;42.87;;
5890;SDS011;2971;52.420;7.080;2024-03-22T01:03:12;56.43;;;43.83;;
5890;SDS011;2971;52.420;7.080;2024-03-22T01:05:39;51.97;;;41.40;;
5890;SDS011;2971;52.420;7.080;2024-03-22T01:08:07;58.77;;;43.77;;
5890;SDS011;2971;52.420;7.080;2024-03-22T01:10:32;56.93;;;44.07;;
5890;SDS011;2971;52.420;7.080;2024-03-22T01:12:58;60.23;;;44.47;;
5890;SDS011;2971;52.420;7.080;2024-03-22T01:15:24;57.57;;;43.73;;
5890;SDS011;2971;52.420;7.080;2024-03-22T01:17:49;57.50;;;44.13;;
5890;SDS011;2971;52.420;7.080;2024-03-22T01:20:15;56.03;;;43.83;;
5890;SDS011;2971;52.420;7.080;2024-03-22T01:22:42;53.87;;;42.50;;
5890;SDS011;2971;52.420;7.080;2024-03-22T01:25:07;55.40;;;41.50;;
5890;SDS011;2971;52.420;7.080;2024-03-22T01:27:34;58.50;;;43.17;;
5890;SDS011;2971;52.420;7.080;2024-03-22T01:30:00;56.93;;;44.10;;
5890;SDS011;2971;52.420;7.080;2024-03-22T01:32:25;56.27;;;44.13;;
5890;SDS011;2971;52.420;7.080;2024-03-22T01:34:51;56.33;;;43.70;;
5890;SDS011;2971;52.420;7.080;2024-03-22T01:37:17;54.53;;;42.10;;
5890;SDS011;2971;52.420;7.080;2024-03-22T01:39:44;56.07;;;41.60;;
5890;SDS011;2971;52.420;7.080;2024-03-22T01:42:10;56.57;;;42.63;;
5890;SDS011;2971;52.420;7.080;2024-03-22T01:44:35;57.77;;;42.90;;
5890;SDS011;2971;52.420;7.080;2024-03-22T01:47:01;53.53;;;42.17;;
5890;SDS011;2971;52.420;7.080;2024-03-22T01:49:27;56.27;;;42.40;;
5890;SDS011;2971;52.420;7.080;2024-03-22T01:51:53;55.67;;;42.97;;
5890;SDS011;2971;52.420;7.080;2024-03-22T01:54:19;54.73;;;42.53;;
5890;SDS011;2971;52.420;7.080;2024-03-22T01:56:46;53.93;;;42.07;;
5890;SDS011;2971;52.420;7.080;2024-03-22T01:59:12;59.90;;;44.20;;
5890;SDS011;2971;52.420;7.080;2024-03-22T02:01:38;57.80;;;43.97;;
5890;SDS011;2971;52.420;7.080;2024-03-22T02:04:04;59.10;;;43.73;;
5890;SDS011;2971;52.420;7.080;2024-03-22T02:06:30;59.50;;;43.50;;
5890;SDS011;2971;52.420;7.080;2024-03-22T02:08:56;54.33;;;42.33;;
5890;SDS011;2971;52.420;7.080;2024-03-22T02:11:22;59.83;;;44.10;;
5890;SDS011;2971;52.420;7.080;2024-03-22T02:13:49;58.27;;;42.17;;
5890;SDS011;2971;52.420;7.080;2024-03-22T02:16:16;55.27;;;42.53;;
5890;SDS011;2971;52.420;7.080;2024-03-22T02:18:42;57.43;;;42.03;;
5890;SDS011;2971;52.420;7.080;2024-03-22T02:21:07;61.57;;;43.77;;
5890;SDS011;2971;52.420;7.080;2024-03-22T02:23:34;59.30;;;43.20;;
5890;SDS011;2971;52.420;7.080;2024-03-22T02:26:00;57.57;;;42.10;;
5890;SDS011;2971;52.420;7.080;2024-03-22T02:28:26;57.00;;;43.03;;
5890;SDS011;2971;52.420;7.080;2024-03-22T02:30:52;60.70;;;44.30;;
5890;SDS011;2971;52.420;7.080;2024-03-22T02:33:17;60.77;;;42.70;;
5890;SDS011;2971;52.420;7.080;2024-03-22T02:35:43;59.10;;;43.63;;
5890;SDS011;2971;52.420;7.080;2024-03-22T02:38:11;58.23;;;43.43;;
5890;SDS011;2971;52.420;7.080;2024-03-22T02:40:38;59.87;;;42.93;;
5890;SDS011;2971;52.420;7.080;2024-03-22T02:43:03;58.53;;;42.00;;
5890;SDS011;2971;52.420;7.080;2024-03-22T02:45:29;60.93;;;43.97;;
5890;SDS011;2971;52.420;7.080;2024-03-22T02:47:55;63.53;;;44.43;;
5890;SDS011;2971;52.420;7.080;2024-03-22T02:50:21;61.87;;;45.13;;
5890;SDS011;2971;52.420;7.080;2024-03-22T02:52:47;65.57;;;44.60;;
5890;SDS011;2971;52.420;7.080;2024-03-22T02:55:13;58.60;;;42.27;;
5890;SDS011;2971;52.420;7.080;2024-03-22T02:57:40;61.43;;;43.83;;
5890;SDS011;2971;52.420;7.080;2024-03-22T03:00:06;60.13;;;43.00;;
5890;SDS011;2971;52.420;7.080;2024-03-22T03:02:32;60.33;;;42.97;;
5890;SDS011;2971;52.420;7.080;2024-03-22T03:04:59;60.83;;;42.67;;
5890;SDS011;2971;52.420;7.080;2024-03-22T03:07:25;60.03;;;42.87;;
5890;SDS011;2971;52.420;7.080;2024-03-22T03:09:50;60.73;;;43.07;;
5890;SDS011;2971;52.420;7.080;2024-03-22T03:12:16;61.20;;;43.63;;
5890;SDS011;2971;52.420;7.080;2024-03-22T03:14:43;64.23;;;43.60;;
5890;SDS011;2971;52.420;7.080;2024-03-22T03:17:08;60.27;;;43.77;;
5890;SDS011;2971;52.420;7.080;2024-03-22T03:19:34;60.77;;;43.27;;
5890;SDS011;2971;52.420;7.080;2024-03-22T03:21:59;64.23;;;43.73;;
5890;SDS011;2971;52.420;7.080;2024-03-22T03:24:25;60.53;;;43.43;;
5890;SDS011;2971;52.420;7.080;2024-03-22T03:26:51;62.03;;;44.53;;
5890;SDS011;2971;52.420;7.080;2024-03-22T03:29:16;63.17;;;44.37;;
5890;SDS011;2971;52.420;7.080;2024-03-22T03:31:43;60.43;;;43.37;;
5890;SDS011;2971;52.420;7.080;2024-03-22T03:34:09;61.47;;;43.33;;
5890;SDS011;2971;52.420;7.080;2024-03-22T03:36:34;61.17;;;43.37;;
5890;SDS011;2971;52.420;7.080;2024-03-22T03:39:00;61.53;;;44.53;;
5890;SDS011;2971;52.420;7.080;2024-03-22T03:41:26;62.93;;;44.00;;
5890;SDS011;2971;52.420;7.080;2024-03-22T03:43:51;63.90;;;44.30;;
5890;SDS011;2971;52.420;7.080;2024-03-22T03:46:17;64.00;;;43.40;;
5890;SDS011;2971;52.420;7.080;2024-03-22T03:48:44;61.20;;;43.03;;
5890;SDS011;2971;52.420;7.080;2024-03-22T03:51:09;64.33;;;44.87;;
5890;SDS011;2971;52.420;7.080;2024-03-22T03:53:35;65.60;;;44.20;;
5890;SDS011;2971;52.420;7.080;2024-03-22T03:56:00;66.27;;;43.73;;
5890;SDS011;2971;52.420;7.080;2024-03-22T03:58:26;65.87;;;44.87;;
5890;SDS011;2971;52.420;7.080;2024-03-22T04:00:52;62.73;;;44.00;;
5890;SDS011;2971;52.420;7.080;2024-03-22T04:03:17;64.17;;;44.57;;
5890;SDS011;2971;52.420;7.080;2024-03-22T04:05:44;64.20;;;45.70;;
5890;SDS011;2971;52.420;7.080;2024-03-22T04:08:10;64.13;;;43.67;;
5890;SDS011;2971;52.420;7.080;2024-03-22T04:10:35;63.03;;;43.87;;
5890;SDS011;2971;52.420;7.080;2024-03-22T04:13:01;65.17;;;44.50;;
5890;SDS011;2971;52.420;7.080;2024-03-22T04:15:27;65.57;;;44.60;;
5890;SDS011;2971;52.420;7.080;2024-03-22T04:17:54;65.40;;;44.80;;
5890;SDS011;2971;52.420;7.080;2024-03-22T04:20:21;62.83;;;44.83;;
5890;SDS011;2971;52.420;7.080;2024-03-22T04:22:48;64.53;;;44.40;;
5890;SDS011;2971;52.420;7.080;2024-03-22T04:25:17;68.33;;;45.47;;
5890;SDS011;2971;52.420;7.080;2024-03-22T04:27:42;61.90;;;44.10;;
5890;SDS011;2971;52.420;7.080;2024-03-22T04:30:08;66.47;;;45.70;;
5890;SDS011;2971;52.420;7.080;2024-03-22T04:32:35;67.57;;;45.70;;
5890;SDS011;2971;52.420;7.080;2024-03-22T04:35:01;63.40;;;44.13;;
5890;SDS011;2971;52.420;7.080;2024-03-22T04:37:27;62.50;;;44.13;;
5890;SDS011;2971;52.420;7.080;2024-03-22T04:39:54;63.77;;;45.10;;
5890;SDS011;2971;52.420;7.080;2024-03-22T04:42:20;64.43;;;44.67;;
5890;SDS011;2971;52.420;7.080;2024-03-22T04:44:45;63.77;;;44.00;;
5890;SDS011;2971;52.420;7.080;2024-03-22T04:47:11;63.00;;;45.13;;
5890;SDS011;2971;52.420;7.080;2024-03-22T04:49:37;63.20;;;45.00;;
5890;SDS011;2971;52.420;7.080;2024-03-22T04:52:02;61.20;;;44.67;;
5890;SDS011;2971;52.420;7.080;2024-03-22T04:54:28;64.23;;;44.93;;
5890;SDS011;2971;52.420;7.080;2024-03-22T04:56:55;64.77;;;44.90;;
5890;SDS011;2971;52.420;7.080;2024-03-22T04:59:20;64.17;;;45.63;;
5890;SDS011;2971;52.420;7.080;2024-03-22T05:01:46;61.63;;;44.17;;
5890;SDS011;2971;52.420;7.080;2024-03-22T05:04:12;66.53;;;45.77;;
5890;SDS011;2971;52.420;7.080;2024-03-22T05:06:37;65.73;;;46.03;;
5890;SDS011;2971;52.420;7.080;2024-03-22T05:09:03;64.57;;;45.93;;
5890;SDS011;2971;52.420;7.080;2024-03-22T05:11:28;64.27;;;45.47;;
5890;SDS011;2971;52.420;7.080;2024-03-22T05:13:55;63.43;;;46.70;;
5890;SDS011;2971;52.420;7.080;2024-03-22T05:16:24;62.80;;;46.10;;
5890;SDS011;2971;52.420;7.080;2024-03-22T05:18:49;65.73;;;46.60;;
5890;SDS011;2971;52.420;7.080;2024-03-22T05:21:15;61.43;;;45.87;;
5890;SDS011;2971;52.420;7.080;2024-03-22T05:23:41;64.17;;;46.83;;
5890;SDS011;2971;52.420;7.080;2024-03-22T05:26:06;65.63;;;47.50;;
5890;SDS011;2971;52.420;7.080;2024-03-22T05:28:32;63.37;;;45.73;;
5890;SDS011;2971;52.420;7.080;2024-03-22T05:30:59;61.73;;;45.70;;
5890;SDS011;2971;52.420;7.080;2024-03-22T05:33:25;64.93;;;47.37;;
5890;SDS011;2971;52.420;7.080;2024-03-22T05:35:51;68.07;;;48.03;;
5890;SDS011;2971;52.420;7.080;2024-03-22T05:38:16;67.13;;;47.20;;
5890;SDS011;2971;52.420;7.080;2024-03-22T05:40:42;68.30;;;48.07;;
5890;SDS011;2971;52.420;7.080;2024-03-22T05:43:07;64.87;;;46.83;;
5890;SDS011;2971;52.420;7.080;2024-03-22T05:45:33;67.17;;;50.23;;
5890;SDS011;2971;52.420;7.080;2024-03-22T05:48:00;65.77;;;49.20;;
5890;SDS011;2971;52.420;7.080;2024-03-22T05:50:25;65.73;;;49.40;;
5890;SDS011;2971;52.420;7.080;2024-03-22T05:52:51;63.80;;;48.00;;
5890;SDS011;2971;52.420;7.080;2024-03-22T05:55:16;66.83;;;49.03;;
5890;SDS011;2971;52.420;7.080;2024-03-22T05:57:43;67.03;;;49.83;;
5890;SDS011;2971;52.420;7.080;2024-03-22T06:00:08;60.57;;;47.83;;
5890;SDS011;2971;52.420;7.080;2024-03-22T06:02:34;64.20;;;48.80;;
5890;SDS011;2971;52.420;7.080;2024-03-22T06:05:01;66.80;;;50.40;;
5890;SDS011;2971;52.420;7.080;2024-03-22T06:07:27;63.70;;;49.10;;
5890;SDS011;2971;52.420;7.080;2024-03-22T06:09:53;64.90;;;48.50;;
5890;SDS011;2971;52.420;7.080;2024-03-22T06:12:18;65.00;;;49.13;;
5890;SDS011;2971;52.420;7.080;2024-03-22T06:14:44;61.57;;;47.73;;
5890;SDS011;2971;52.420;7.080;2024-03-22T06:17:11;61.53;;;47.53;;
5890;SDS011;2971;52.420;7.080;2024-03-22T06:19:37;59.37;;;46.57;;
5890;SDS011;2971;52.420;7.080;2024-03-22T06:22:04;60.40;;;47.37;;
5890;SDS011;2971;52.420;7.080;2024-03-22T06:24:30;60.20;;;46.60;;
5890;SDS011;2971;52.420;7.080;2024-03-22T06:26:55;59.43;;;46.63;;
5890;SDS011;2971;52.420;7.080;2024-03-22T06:29:21;59.23;;;46.83;;
5890;SDS011;2971;52.420;7.080;2024-03-22T06:31:47;61.93;;;46.80;;
5890;SDS011;2971;52.420;7.080;2024-03-22T06:34:13;57.30;;;45.50;;
5890;SDS011;2971;52.420;7.080;2024-03-22T06:36:38;59.90;;;46.47;;
5890;SDS011;2971;52.420;7.080;2024-03-22T06:39:05;58.13;;;46.23;;
5890;SDS011;2971;52.420;7.080;2024-03-22T06:41:33;59.77;;;46.17;;
5890;SDS011;2971;52.420;7.080;2024-03-22T06:43:59;57.97;;;45.87;;
5890;SDS011;2971;52.420;7.080;2024-03-22T06:46:25;58.00;;;44.53;;
5890;SDS011;2971;52.420;7.080;2024-03-22T06:48:51;55.43;;;44.30;;
5890;SDS011;2971;52.420;7.080;2024-03-22T06:51:17;59.77;;;45.60;;
5890;SDS011;2971;52.420;7.080;2024-03-22T06:53:43;54.83;;;44.07;;
5890;SDS011;2971;52.420;7.080;2024-03-22T06:56:11;57.00;;;44.30;;
5890;SDS011;2971;52.420;7.080;2024-03-22T06:58:37;54.40;;;43.77;;
5890;SDS011;2971;52.420;7.080;2024-03-22T07:01:03;55.43;;;43.43;;
5890;SDS011;2971;52.420;7.080;2024-03-22T07:03:29;59.53;;;45.03;;
5890;SDS011;2971;52.420;7.080;2024-03-22T07:05:55;51.77;;;42.93;;
5890;SDS011;2971;52.420;7.080;2024-03-22T07:08:20;50.90;;;40.93;;
5890;SDS011;2971;52.420;7.080;2024-03-22T07:10:46;53.10;;;40.23;;
5890;SDS011;2971;52.420;7.080;2024-03-22T07:13:13;52.40;;;41.30;;
5890;SDS011;2971;52.420;7.080;2024-03-22T07:15:38;50.67;;;41.43;;
5890;SDS011;2971;52.420;7.080;2024-03-22T07:18:04;46.63;;;39.50;;
5890;SDS011;2971;52.420;7.080;2024-03-22T07:20:30;49.00;;;40.37;;
5890;SDS011;2971;52.420;7.080;2024-03-22T07:22:56;50.10;;;40.57;;
5890;SDS011;2971;52.420;7.080;2024-03-22T07:25:22;47.67;;;39.07;;
5890;SDS011;2971;52.420;7.080;2024-03-22T07:27:47;52.47;;;40.53;;
5890;SDS011;2971;52.420;7.080;2024-03-22T07:30:15;48.23;;;39.43;;
5890;SDS011;2971;52.420;7.080;2024-03-22T07:32:41;51.77;;;41.43;;
5890;SDS011;2971;52.420;7.080;2024-03-22T07:35:07;48.30;;;40.07;;
5890;SDS011;2971;52.420;7.080;2024-03-22T07:37:32;49.40;;;39.77;;
5890;SDS011;2971;52.420;7.080;2024-03-22T07:39:59;53.03;;;39.90;;
5890;SDS011;2971;52.420;7.080;2024-03-22T07:42:25;49.13;;;37.53;;
5890;SDS011;2971;52.420;7.080;2024-03-22T07:44:50;49.27;;;39.17;;
5890;SDS011;2971;52.420;7.080;2024-03-22T07:47:17;46.40;;;38.53;;
5890;SDS011;2971;52.420;7.080;2024-03-22T07:49:43;46.50;;;39.10;;
5890;SDS011;2971;52.420;7.080;2024-03-22T07:52:08;46.37;;;37.60;;
5890;SDS011;2971;52.420;7.080;2024-03-22T07:54:34;44.53;;;37.83;;
5890;SDS011;2971;52.420;7.080;2024-03-22T07:56:59;48.20;;;38.80;;
5890;SDS011;2971;52.420;7.080;2024-03-22T07:59:25;46.47;;;38.10;;
5890;SDS011;2971;52.420;7.080;2024-03-22T08:01:50;53.00;;;39.53;;
5890;SDS011;2971;52.420;7.080;2024-03-22T08:04:17;47.80;;;39.57;;
5890;SDS011;2971;52.420;7.080;2024-03-22T08:06:43;47.97;;;38.93;;
5890;SDS011;2971;52.420;7.080;2024-03-22T08:09:09;46.47;;;38.03;;
5890;SDS011;2971;52.420;7.080;2024-03-22T08:11:34;44.97;;;37.77;;
5890;SDS011;2971;52.420;7.080;2024-03-22T08:14:00;46.83;;;38.93;;
5890;SDS011;2971;52.420;7.080;2024-03-22T08:16:28;45.47;;;37.97;;
5890;SDS011;2971;52.420;7.080;2024-03-22T08:18:54;44.57;;;37.40;;
5890;SDS011;2971;52.420;7.080;2024-03-22T08:21:21;45.97;;;37.57;;
5890;SDS011;2971;52.420;7.080;2024-03-22T08:23:47;45.53;;;37.67;;
5890;SDS011;2971;52.420;7.080;2024-03-22T08:26:12;42.80;;;35.80;;
5890;SDS011;2971;52.420;7.080;2024-03-22T08:28:38;42.93;;;37.10;;
5890;SDS011;2971;52.420;7.080;2024-03-22T08:31:03;46.20;;;36.57;;
5890;SDS011;2971;52.420;7.080;2024-03-22T08:33:29;45.60;;;37.00;;
5890;SDS011;2971;52.420;7.080;2024-03-22T08:35:55;45.77;;;36.73;;
5890;SDS011;2971;52.420;7.080;2024-03-22T08:38:22;46.57;;;37.43;;
5890;SDS011;2971;52.420;7.080;2024-03-22T08:40:49;41.90;;;36.23;;
5890;SDS011;2971;52.420;7.080;2024-03-22T08:43:15;44.40;;;36.20;;
5890;SDS011;2971;52.420;7.080;2024-03-22T08:45:41;46.13;;;36.87;;
5890;SDS011;2971;52.420;7.080;2024-03-22T08:48:07;43.17;;;35.33;;
5890;SDS011;2971;52.420;7.080;2024-03-22T08:50:33;46.33;;;37.17;;
5890;SDS011;2971;52.420;7.080;2024-03-22T08:52:58;43.00;;;35.63;;
5890;SDS011;2971;52.420;7.080;2024-03-22T08:55:25;44.23;;;36.40;;
5890;SDS011;2971;52.420;7.080;2024-03-22T08:57:51;42.10;;;35.43;;
5890;SDS011;2971;52.420;7.080;2024-03-22T09:00:17;43.30;;;35.87;;
5890;SDS011;2971;52.420;7.080;2024-03-22T09:02:42;42.03;;;34.20;;
5890;SDS011;2971;52.420;7.080;2024-03-22T09:05:08;45.53;;;35.70;;
5890;SDS011;2971;52.420;7.080;2024-03-22T09:07:34;46.37;;;35.37;;
5890;SDS011;2971;52.420;7.080;2024-03-22T09:09:59;44.23;;;35.70;;
5890;SDS011;2971;52.420;7.080;2024-03-22T09:12:26;43.10;;;34.63;;
5890;SDS011;2971;52.420;7.080;2024-03-22T09:14:52;42.57;;;34.27;;
5890;SDS011;2971;52.420;7.080;2024-03-22T09:17:17;44.00;;;35.47;;
5890;SDS011;2971;52.420;7.080;2024-03-22T09:19:43;44.13;;;34.47;;
5890;SDS011;2971;52.420;7.080;2024-03-22T09:22:08;43.73;;;35.27;;
5890;SDS011;2971;52.420;7.080;2024-03-22T09:24:34;44.07;;;35.43;;
5890;SDS011;2971;52.420;7.080;2024-03-22T09:27:00;43.90;;;34.67;;
5890;SDS011;2971;52.420;7.080;2024-03-22T09:29:27;39.90;;;34.00;;
5890;SDS011;2971;52.420;7.080;2024-03-22T09:31:52;41.67;;;33.87;;
5890;SDS011;2971;52.420;7.080;2024-03-22T09:34:18;42.37;;;34.47;;
5890;SDS011;2971;52.420;7.080;2024-03-22T09:36:45;40.40;;;33.50;;
5890;SDS011;2971;52.420;7.080;2024-03-22T09:39:10;43.10;;;34.30;;
5890;SDS011;2971;52.420;7.080;2024-03-22T09:41:42;41.07;;;33.00;;
5890;SDS011;2971;52.420;7.080;2024-03-22T09:44:09;42.50;;;32.17;;
5890;SDS011;2971;52.420;7.080;2024-03-22T09:46:39;39.07;;;31.83;;
5890;SDS011;2971;52.420;7.080;2024-03-22T09:49:05;39.20;;;31.80;;
5890;SDS011;2971;52.420;7.080;2024-03-22T09:51:31;42.63;;;32.80;;
5890;SDS011;2971;52.420;7.080;2024-03-22T09:53:57;40.77;;;31.63;;
5890;SDS011;2971;52.420;7.080;2024-03-22T09:56:23;40.73;;;31.60;;
5890;SDS011;2971;52.420;7.080;2024-03-22T09:58:50;44.07;;;31.67;;
5890;SDS011;2971;52.420;7.080;2024-03-22T10:01:15;38.93;;;31.53;;
5890;SDS011;2971;52.420;7.080;2024-03-22T10:03:43;42.07;;;33.80;;
5890;SDS011;2971;52.420;7.080;2024-03-22T10:06:09;39.63;;;30.70;;
5890;SDS011;2971;52.420;7.080;2024-03-22T10:08:34;40.23;;;31.80;;
5890;SDS011;2971;52.420;7.080;2024-03-22T10:11:01;36.63;;;31.60;;
5890;SDS011;2971;52.420;7.080;2024-03-22T10:13:28;42.83;;;32.03;;
5890;SDS011;2971;52.420;7.080;2024-03-22T10:15:54;39.07;;;32.80;;
5890;SDS011;2971;52.420;7.080;2024-03-22T10:18:19;45.00;;;32.57;;
5890;SDS011;2971;52.420;7.080;2024-03-22T10:20:48;40.13;;;32.33;;
5890;SDS011;2971;52.420;7.080;2024-03-22T10:23:25;43.27;;;32.93;;
5890;SDS011;2971;52.420;7.080;2024-03-22T10:25:51;49.97;;;34.23;;
5890;SDS011;2971;52.420;7.080;2024-03-22T10:28:16;44.53;;;34.97;;
5890;SDS011;2971;52.420;7.080;2024-03-22T10:30:42;43.47;;;35.00;;
5890;SDS011;2971;52.420;7.080;2024-03-22T10:33:09;50.00;;;34.17;;
5890;SDS011;2971;52.420;7.080;2024-03-22T10:35:34;44.73;;;34.20;;
5890;SDS011;2971;52.420;7.080;2024-03-22T10:38:01;45.57;;;33.03;;
5890;SDS011;2971;52.420;7.080;2024-03-22T10:40:28;46.00;;;34.50;;
5890;SDS011;2971;52.420;7.080;2024-03-22T10:42:55;47.37;;;34.63;;
5890;SDS011;2971;52.420;7.080;2024-03-22T10:45:22;45.20;;;34.23;;
5890;SDS011;2971;52.420;7.080;2024-03-22T10:47:50;45.47;;;32.73;;
5890;SDS011;2971;52.420;7.080;2024-03-22T10:50:18;41.97;;;32.17;;
5890;SDS011;2971;52.420;7.080;2024-03-22T10:52:45;40.07;;;31.43;;
5890;SDS011;2971;52.420;7.080;2024-03-22T10:55:18;40.37;;;30.37;;
5890;SDS011;2971;52.420;7.080;2024-03-22T10:57:45;39.13;;;30.43;;
5890;SDS011;2971;52.420;7.080;2024-03-22T11:00:11;45.17;;;33.10;;
5890;SDS011;2971;52.420;7.080;2024-03-22T11:02:37;43.33;;;31.57;;
5890;SDS011;2971;52.420;7.080;2024-03-22T11:05:03;45.53;;;32.00;;
5890;SDS011;2971;52.420;7.080;2024-03-22T11:07:29;43.83;;;32.53;;
5890;SDS011;2971;52.420;7.080;2024-03-22T11:09:55;41.40;;;31.30;;
5890;SDS011;2971;52.420;7.080;2024-03-22T11:12:24;38.57;;;30.90;;
5890;SDS011;2971;52.420;7.080;2024-03-22T11:14:51;39.27;;;29.63;;
5890;SDS011;2971;52.420;7.080;2024-03-22T11:17:17;43.87;;;31.20;;
5890;SDS011;2971;52.420;7.080;2024-03-22T11:19:43;40.07;;;30.67;;
5890;SDS011;2971;52.420;7.080;2024-03-22T11:22:08;41.67;;;30.23;;
5890;SDS011;2971;52.420;7.080;2024-03-22T11:24:37;35.07;;;27.60;;
5890;SDS011;2971;52.420;7.080;2024-03-22T11:27:02;35.73;;;28.80;;
5890;SDS011;2971;52.420;7.080;2024-03-22T11:29:30;35.43;;;28.07;;
5890;SDS011;2971;52.420;7.080;2024-03-22T11:31:55;35.57;;;27.67;;
5890;SDS011;2971;52.420;7.080;2024-03-22T11:34:21;39.07;;;28.10;;
5890;SDS011;2971;52.420;7.080;2024-03-22T11:36:46;36.27;;;27.73;;
5890;SDS011;2971;52.420;7.080;2024-03-22T11:39:14;36.67;;;27.70;;
5890;SDS011;2971;52.420;7.080;2024-03-22T11:41:40;35.77;;;26.17;;
5890;SDS011;2971;52.420;7.080;2024-03-22T11:44:06;38.10;;;27.03;;
5890;SDS011;2971;52.420;7.080;2024-03-22T11:46:33;31.93;;;25.23;;
5890;SDS011;2971;52.420;7.080;2024-03-22T11:48:58;33.53;;;25.47;;
5890;SDS011;2971;52.420;7.080;2024-03-22T11:51:24;32.83;;;25.13;;
5890;SDS011;2971;52.420;7.080;2024-03-22T11:53:50;31.63;;;24.60;;
5890;SDS011;2971;52.420;7.080;2024-03-22T11:56:17;34.47;;;23.40;;
5890;SDS011;2971;52.420;7.080;2024-03-22T11:58:45;26.67;;;21.73;;
5890;SDS011;2971;52.420;7.080;2024-03-22T12:01:11;27.57;;;21.87;;
5890;SDS011;2971;52.420;7.080;2024-03-22T12:03:38;27.20;;;22.00;;
5890;SDS011;2971;52.420;7.080;2024-03-22T12:06:05;25.77;;;21.27;;
5890;SDS011;2971;52.420;7.080;2024-03-22T12:08:31;26.07;;;20.80;;
5890;SDS011;2971;52.420;7.080;2024-03-22T12:10:56;25.67;;;20.37;;
5890;SDS011;2971;52.420;7.080;2024-03-22T12:13:22;26.87;;;20.70;;
5890;SDS011;2971;52.420;7.080;2024-03-22T12:15:48;24.13;;;19.90;;
5890;SDS011;2971;52.420;7.080;2024-03-22T12:18:14;23.83;;;20.23;;
5890;SDS011;2971;52.420;7.080;2024-03-22T12:20:41;20.17;;;17.80;;
5890;SDS011;2971;52.420;7.080;2024-03-22T12:23:06;21.57;;;18.77;;
5890;SDS011;2971;52.420;7.080;2024-03-22T12:25:32;20.73;;;18.10;;
5890;SDS011;2971;52.420;7.080;2024-03-22T12:27:57;20.93;;;17.53;;
5890;SDS011;2971;52.420;7.080;2024-03-22T12:30:23;24.23;;;18.17;;
5890;SDS011;2971;52.420;7.080;2024-03-22T12:32:51;21.63;;;17.63;;
5890;SDS011;2971;52.420;7.080;2024-03-22T12:35:16;21.17;;;17.90;;
5890;SDS011;2971;52.420;7.080;2024-03-22T12:37:44;20.07;;;16.10;;
5890;SDS011;2971;52.420;7.080;2024-03-22T12:40:10;18.53;;;16.30;;
5890;SDS011;2971;52.420;7.080;2024-03-22T12:42:36;20.03;;;16.97;;
5890;SDS011;2971;52.420;7.080;2024-03-22T12:45:02;19.47;;;16.73;;
5890;SDS011;2971;52.420;7.080;2024-03-22T12:47:28;19.43;;;16.67;;
5890;SDS011;2971;52.420;7.080;2024-03-22T12:49:53;17.40;;;15.50;;
5890;SDS011;2971;52.420;7.080;2024-03-22T12:52:19;17.93;;;15.63;;
5890;SDS011;2971;52.420;7.080;2024-03-22T12:54:46;17.23;;;14.23;;
5890;SDS011;2971;52.420;7.080;2024-03-22T12:57:12;16.57;;;14.37;;
5890;SDS011;2971;52.420;7.080;2024-03-22T12:59:37;15.97;;;14.17;;
5890;SDS011;2971;52.420;7.080;2024-03-22T13:02:03;17.00;;;14.07;;
5890;SDS011;2971;52.420;7.080;2024-03-22T13:04:29;16.10;;;13.83;;
5890;SDS011;2971;52.420;7.080;2024-03-22T13:06:55;17.03;;;14.07;;
5890;SDS011;2971;52.420;7.080;2024-03-22T13:09:20;16.73;;;14.40;;
5890;SDS011;2971;52.420;7.080;2024-03-22T13:11:48;15.90;;;13.57;;
5890;SDS011;2971;52.420;7.080;2024-03-22T13:14:13;16.40;;;13.90;;
5890;SDS011;2971;52.420;7.080;2024-03-22T13:16:39;15.73;;;13.93;;
5890;SDS011;2971;52.420;7.080;2024-03-22T13:19:05;15.43;;;12.63;;
5890;SDS011;2971;52.420;7.080;2024-03-22T13:21:33;16.73;;;14.07;;
5890;SDS011;2971;52.420;7.080;2024-03-22T13:23:58;15.23;;;13.63;;
5890;SDS011;2971;52.420;7.080;2024-03-22T13:26:24;16.07;;;14.37;;
5890;SDS011;2971;52.420;7.080;2024-03-22T13:28:52;13.93;;;12.53;;
5890;SDS011;2971;52.420;7.080;2024-03-22T13:31:17;16.13;;;12.53;;
5890;SDS011;2971;52.420;7.080;2024-03-22T13:33:43;13.77;;;12.37;;
5890;SDS011;2971;52.420;7.080;2024-03-22T13:36:08;14.93;;;12.03;;
5890;SDS011;2971;52.420;7.080;2024-03-22T13:38:34;13.70;;;12.30;;
5890;SDS011;2971;52.420;7.080;2024-03-22T13:41:00;13.67;;;12.23;;
5890;SDS011;2971;52.420;7.080;2024-03-22T13:43:25;14.27;;;12.23;;
5890;SDS011;2971;52.420;7.080;2024-03-22T13:45:53;13.00;;;11.63;;
5890;SDS011;2971;52.420;7.080;2024-03-22T13:48:19;14.80;;;12.37;;
5890;SDS011;2971;52.420;7.080;2024-03-22T13:50:49;14.13;;;12.23;;
5890;SDS011;2971;52.420;7.080;2024-03-22T13:53:14;13.00;;;11.70;;
5890;SDS011;2971;52.420;7.080;2024-03-22T13:55:41;12.57;;;11.27;;
5890;SDS011;2971;52.420;7.080;2024-03-22T13:58:07;11.10;;;10.00;;
5890;SDS011;2971;52.420;7.080;2024-03-22T14:00:33;11.17;;;10.07;;
5890;SDS011;2971;52.420;7.080;2024-03-22T14:03:00;11.53;;;10.13;;
5890;SDS011;2971;52.420;7.080;2024-03-22T14:05:25;10.90;;;9.80;;
5890;SDS011;2971;52.420;7.080;2024-03-22T14:07:51;10.70;;;9.70;;
5890;SDS011;2971;52.420;7.080;2024-03-22T14:10:17;10.37;;;9.37;;
5890;SDS011;2971;52.420;7.080;2024-03-22T14:12:43;9.60;;;8.70;;
5890;SDS011;2971;52.420;7.080;2024-03-22T14:15:10;9.43;;;8.57;;
5890;SDS011;2971;52.420;7.080;2024-03-22T14:17:35;8.90;;;8.10;;
5890;SDS011;2971;52.420;7.080;2024-03-22T14:20:03;8.87;;;7.97;;
5890;SDS011;2971;52.420;7.080;2024-03-22T14:22:35;8.67;;;7.83;;
5890;SDS011;2971;52.420;7.080;2024-03-22T14:25:00;8.17;;;7.47;;
5890;SDS011;2971;52.420;7.080;2024-03-22T14:27:27;8.50;;;7.70;;
5890;SDS011;2971;52.420;7.080;2024-03-22T14:29:53;7.87;;;7.17;;
5890;SDS011;2971;52.420;7.080;2024-03-22T14:32:18;7.73;;;7.03;;
5890;SDS011;2971;52.420;7.080;2024-03-22T14:34:45;8.20;;;7.40;;
5890;SDS011;2971;52.420;7.080;2024-03-22T14:37:12;8.07;;;7.37;;
5890;SDS011;2971;52.420;7.080;2024-03-22T14:39:38;7.07;;;6.47;;
5890;SDS011;2971;52.420;7.080;2024-03-22T14:42:04;7.53;;;6.93;;